createdAt,value
2022-12-31T00:00:21.596Z,0.67
2022-12-31T00:02:48.735Z,0.50
2022-12-31T00:05:15.831Z,0.60
2022-12-31T00:10:09.377Z,0.70
2022-12-31T00:12:36.743Z,0.55
2022-12-31T00:15:04.032Z,0.70
2022-12-31T00:17:31.141Z,0.40
2022-12-31T00:19:58.057Z,0.50
2022-12-31T00:22:25.177Z,0.60
2022-12-31T00:24:52.148Z,0.60
2022-12-31T00:27:19.448Z,0.50
2022-12-31T00:29:46.628Z,0.60
2022-12-31T00:32:13.926Z,0.50
2022-12-31T00:34:40.900Z,0.50
2022-12-31T00:37:08.209Z,0.70
2022-12-31T00:39:35.165Z,0.70
2022-12-31T00:42:02.715Z,0.50
2022-12-31T00:44:29.738Z,0.47
2022-12-31T00:46:56.711Z,0.50
2022-12-31T00:49:23.657Z,0.40
2022-12-31T00:51:50.952Z,0.60
2022-12-31T00:54:17.896Z,0.60
2022-12-31T00:56:45.158Z,0.50
2022-12-31T00:59:12.091Z,0.53
2022-12-31T01:01:40.816Z,0.60
2022-12-31T01:04:15.196Z,0.50
2022-12-31T01:06:43.920Z,0.50
2022-12-31T01:09:12.709Z,0.57
2022-12-31T01:11:39.868Z,0.60
2022-12-31T01:14:14.626Z,0.80
2022-12-31T01:16:51.172Z,0.80
2022-12-31T01:19:22.334Z,0.40
2022-12-31T01:21:51.419Z,0.50
2022-12-31T01:24:19.398Z,0.63
2022-12-31T01:26:47.034Z,0.80
2022-12-31T01:29:14.796Z,0.47
2022-12-31T01:31:42.454Z,0.60
2022-12-31T01:34:09.713Z,0.53
2022-12-31T01:36:38.420Z,0.70
2022-12-31T01:39:08.538Z,0.70
2022-12-31T01:41:43.713Z,0.60
2022-12-31T01:44:13.567Z,0.57
2022-12-31T01:46:58.494Z,0.70
2022-12-31T01:49:44.689Z,0.63
2022-12-31T01:52:38.602Z,0.60
2022-12-31T01:55:14.930Z,0.50
2022-12-31T01:57:45.747Z,0.60
2022-12-31T02:00:13.344Z,0.70
2022-12-31T02:02:40.447Z,0.70
2022-12-31T02:05:26.091Z,0.60
2022-12-31T02:07:54.749Z,0.70
2022-12-31T02:10:21.699Z,0.70
2022-12-31T02:12:50.545Z,0.57
2022-12-31T02:15:22.925Z,0.60
2022-12-31T02:18:10.207Z,0.60
2022-12-31T02:21:09.435Z,0.50
2022-12-31T02:23:53.344Z,0.90
2022-12-31T02:26:54.169Z,0.70
2022-12-31T02:29:35.969Z,0.57
2022-12-31T02:32:07.767Z,0.50
2022-12-31T02:34:40.644Z,0.40
2022-12-31T02:37:12.371Z,0.50
2022-12-31T02:39:42.123Z,0.73
2022-12-31T02:42:11.594Z,0.70
2022-12-31T02:44:41.612Z,0.53
2022-12-31T02:47:08.694Z,0.50
2022-12-31T02:50:25.464Z,0.70
2022-12-31T02:53:29.535Z,0.63
2022-12-31T02:56:21.481Z,0.60
2022-12-31T02:59:33.341Z,0.50
2022-12-31T03:02:15.316Z,0.70
2022-12-31T03:04:56.049Z,0.93
2022-12-31T03:07:23.960Z,0.43
2022-12-31T03:09:51.923Z,0.70
2022-12-31T03:12:43.454Z,0.40
2022-12-31T03:15:21.501Z,0.70
2022-12-31T03:18:02.804Z,0.47
2022-12-31T03:21:02.622Z,0.70
2022-12-31T03:23:41.702Z,0.70
2022-12-31T03:26:12.984Z,0.53
2022-12-31T03:28:47.732Z,0.50
2022-12-31T03:31:16.479Z,0.60
2022-12-31T03:33:43.549Z,0.55
2022-12-31T03:36:15.354Z,0.70
2022-12-31T03:38:42.889Z,0.40
2022-12-31T03:41:11.133Z,0.60
2022-12-31T03:43:38.478Z,0.80
2022-12-31T03:46:05.639Z,0.50
2022-12-31T03:48:32.912Z,0.40
2022-12-31T03:50:59.929Z,0.63
2022-12-31T03:53:27.540Z,0.50
2022-12-31T03:55:55.020Z,0.50
2022-12-31T03:58:22.945Z,0.57
2022-12-31T04:00:50.562Z,0.60
2022-12-31T04:03:17.962Z,0.60
2022-12-31T04:05:45.003Z,0.30
2022-12-31T04:08:11.979Z,0.57
2022-12-31T04:10:39.193Z,0.40
2022-12-31T04:13:06.124Z,0.50
2022-12-31T04:15:33.376Z,0.53
2022-12-31T04:18:00.323Z,0.47
2022-12-31T04:20:27.596Z,0.50
2022-12-31T04:22:54.588Z,0.40
2022-12-31T04:25:21.707Z,0.53
2022-12-31T04:27:48.636Z,0.50
2022-12-31T04:30:15.989Z,0.43
2022-12-31T04:32:43.191Z,0.60
2022-12-31T04:35:12.441Z,0.50
2022-12-31T04:37:39.471Z,0.50
2022-12-31T04:40:08.767Z,0.60
2022-12-31T04:42:36.559Z,0.50
2022-12-31T04:45:05.045Z,0.40
2022-12-31T04:47:32.016Z,0.57
2022-12-31T04:49:59.226Z,0.50
2022-12-31T04:52:26.240Z,0.50
2022-12-31T04:54:53.430Z,0.60
2022-12-31T04:57:20.390Z,0.50
2022-12-31T04:59:47.830Z,0.40
2022-12-31T05:02:15.106Z,0.50
2022-12-31T05:04:43.864Z,0.50
2022-12-31T05:07:10.801Z,0.50
2022-12-31T05:09:37.901Z,0.40
2022-12-31T05:12:05.265Z,0.50
2022-12-31T05:14:32.504Z,0.60
2022-12-31T05:16:59.510Z,0.40
2022-12-31T05:19:26.776Z,0.60
2022-12-31T05:22:19.626Z,0.60
2022-12-31T05:24:46.853Z,0.60
2022-12-31T05:27:15.030Z,0.50
2022-12-31T05:29:41.981Z,0.67
2022-12-31T05:32:09.148Z,0.40
2022-12-31T05:34:36.111Z,0.50
2022-12-31T05:37:03.406Z,0.73
2022-12-31T05:39:30.382Z,0.50
2022-12-31T05:41:57.630Z,0.67
2022-12-31T05:44:24.572Z,0.90
2022-12-31T05:46:51.615Z,0.50
2022-12-31T05:49:18.866Z,0.68
2022-12-31T05:51:46.548Z,0.70
2022-12-31T05:54:13.682Z,0.50
2022-12-31T05:56:40.639Z,0.50
2022-12-31T05:59:07.774Z,0.60
2022-12-31T06:01:34.926Z,0.50
2022-12-31T06:04:02.071Z,0.40
2022-12-31T06:06:29.224Z,0.70
2022-12-31T06:08:56.301Z,0.50
2022-12-31T06:11:23.593Z,0.57
2022-12-31T06:13:50.783Z,0.70
2022-12-31T06:16:17.865Z,0.77
2022-12-31T06:18:50.367Z,0.60
2022-12-31T06:21:18.929Z,0.40
2022-12-31T06:23:46.416Z,0.70
2022-12-31T06:26:13.580Z,0.50
2022-12-31T06:28:41.168Z,0.60
2022-12-31T06:31:11.917Z,0.50
2022-12-31T06:33:39.545Z,0.67
2022-12-31T06:36:11.213Z,0.50
2022-12-31T06:38:40.900Z,0.40
2022-12-31T06:41:11.028Z,0.50
2022-12-31T06:43:40.778Z,0.70
2022-12-31T06:46:11.450Z,0.50
2022-12-31T06:48:39.569Z,0.50
2022-12-31T06:51:16.771Z,0.60
2022-12-31T06:53:47.242Z,0.37
2022-12-31T06:56:20.626Z,0.60
2022-12-31T06:58:48.925Z,0.40
2022-12-31T07:01:44.449Z,0.40
2022-12-31T07:04:49.136Z,0.60
2022-12-31T07:07:53.409Z,0.53
2022-12-31T07:11:00.244Z,0.50
2022-12-31T07:13:35.904Z,0.50
2022-12-31T07:16:55.468Z,0.50
2022-12-31T07:19:37.327Z,0.50
2022-12-31T07:22:05.566Z,0.47
2022-12-31T07:24:32.932Z,0.40
2022-12-31T07:27:59.261Z,0.50
2022-12-31T07:30:57.705Z,0.50
2022-12-31T07:33:46.754Z,0.50
2022-12-31T07:36:42.659Z,0.40
2022-12-31T07:39:22.134Z,0.40
2022-12-31T07:42:06.946Z,0.50
2022-12-31T07:45:03.439Z,0.43
2022-12-31T07:47:30.949Z,0.40
2022-12-31T07:49:58.668Z,0.60
2022-12-31T07:52:26.236Z,0.40
2022-12-31T07:54:53.436Z,0.47
2022-12-31T07:57:23.513Z,0.40
2022-12-31T08:00:13.099Z,0.90
2022-12-31T08:03:01.821Z,0.63
2022-12-31T08:05:58.712Z,0.50
2022-12-31T08:09:03.945Z,0.50
2022-12-31T08:11:57.716Z,0.60
2022-12-31T08:14:26.916Z,0.40
2022-12-31T08:16:55.081Z,0.40
2022-12-31T08:19:32.229Z,0.60
2022-12-31T08:22:24.124Z,0.50
2022-12-31T08:25:20.919Z,0.70
2022-12-31T08:27:54.003Z,0.40
2022-12-31T08:30:22.060Z,0.40
2022-12-31T08:33:28.486Z,0.60
2022-12-31T08:36:29.463Z,0.43
2022-12-31T08:39:33.960Z,0.40
2022-12-31T08:42:09.438Z,0.30
2022-12-31T08:44:52.996Z,0.40
2022-12-31T08:47:59.512Z,0.50
2022-12-31T08:50:27.989Z,0.40
2022-12-31T08:52:55.460Z,0.50
2022-12-31T08:55:24.548Z,0.50
2022-12-31T08:58:38.585Z,0.40
2022-12-31T09:01:07.792Z,0.60
2022-12-31T09:03:57.830Z,0.53
2022-12-31T09:06:42.633Z,0.80
2022-12-31T09:09:54.617Z,0.50
2022-12-31T09:12:32.537Z,0.40
2022-12-31T09:15:05.532Z,0.67
2022-12-31T09:18:01.489Z,0.60
2022-12-31T09:20:42.862Z,0.50
2022-12-31T09:23:12.531Z,0.40
2022-12-31T09:25:55.922Z,0.30
2022-12-31T09:28:59.281Z,0.50
2022-12-31T09:31:48.774Z,0.50
2022-12-31T09:34:31.662Z,0.37
2022-12-31T09:37:06.582Z,0.47
2022-12-31T09:39:46.248Z,0.50
2022-12-31T09:43:11.075Z,0.50
2022-12-31T09:46:22.542Z,0.50
2022-12-31T09:49:32.392Z,0.30
2022-12-31T09:52:11.419Z,0.40
2022-12-31T09:55:23.857Z,0.57
2022-12-31T09:58:06.915Z,0.60
2022-12-31T10:00:50.315Z,0.40
2022-12-31T10:03:29.355Z,0.50
2022-12-31T10:06:33.973Z,0.40
2022-12-31T10:09:27.572Z,0.60
2022-12-31T10:12:21.137Z,0.37
2022-12-31T10:15:38.000Z,0.40
2022-12-31T10:19:09.142Z,0.50
2022-12-31T10:22:09.315Z,0.40
2022-12-31T10:25:14.940Z,0.40
2022-12-31T10:28:00.424Z,0.40
2022-12-31T10:30:35.678Z,0.50
2022-12-31T10:33:25.497Z,0.37
2022-12-31T10:36:18.299Z,0.50
2022-12-31T10:39:24.204Z,0.43
2022-12-31T10:42:32.054Z,0.40
2022-12-31T10:45:33.672Z,0.30
2022-12-31T10:48:16.097Z,0.40
2022-12-31T10:51:09.983Z,0.43
2022-12-31T10:54:23.989Z,0.40
2022-12-31T10:57:12.578Z,0.40
2022-12-31T10:59:58.689Z,0.40
2022-12-31T11:02:40.622Z,0.47
2022-12-31T11:05:32.644Z,0.50
2022-12-31T11:08:05.385Z,1.00
2022-12-31T11:11:12.014Z,0.77
2022-12-31T11:14:19.999Z,0.60
2022-12-31T11:17:05.794Z,1.10
2022-12-31T11:20:03.999Z,1.00
2022-12-31T11:23:00.639Z,0.93
2022-12-31T11:26:08.540Z,1.00
2022-12-31T11:28:53.257Z,1.30
2022-12-31T11:31:42.621Z,1.20
2022-12-31T11:34:22.334Z,1.07
2022-12-31T11:37:22.184Z,1.00
2022-12-31T11:40:42.053Z,2.00
2022-12-31T11:44:09.903Z,1.10
2022-12-31T11:47:03.963Z,1.23
2022-12-31T11:49:46.737Z,1.37
2022-12-31T11:52:53.896Z,1.30
2022-12-31T11:56:00.221Z,1.43
2022-12-31T11:58:28.934Z,1.17
2022-12-31T12:01:18.523Z,1.50
2022-12-31T12:03:46.315Z,1.30
2022-12-31T12:06:18.256Z,1.50
2022-12-31T12:08:46.465Z,1.20
2022-12-31T12:11:28.734Z,1.43
2022-12-31T12:13:56.425Z,1.00
2022-12-31T12:16:25.853Z,1.00
2022-12-31T12:19:06.696Z,0.93
2022-12-31T12:21:34.710Z,0.93
2022-12-31T12:24:27.800Z,0.80
2022-12-31T12:26:57.369Z,1.00
2022-12-31T12:29:29.751Z,1.10
2022-12-31T12:32:02.778Z,0.90
2022-12-31T12:34:39.484Z,0.90
2022-12-31T12:37:35.337Z,1.00
2022-12-31T12:40:33.325Z,0.90
2022-12-31T12:43:02.709Z,0.83
2022-12-31T12:45:47.663Z,0.80
2022-12-31T12:48:29.759Z,0.80
2022-12-31T13:22:50.340Z,25.37
2022-12-31T13:32:46.625Z,15.30
2022-12-31T13:36:15.565Z,15.67
2022-12-31T13:39:47.027Z,14.70
2022-12-31T13:42:22.675Z,13.90
2022-12-31T13:45:02.910Z,13.03
2022-12-31T13:47:41.998Z,12.90
2022-12-31T13:50:26.097Z,11.97
2022-12-31T13:53:29.396Z,11.10
2022-12-31T13:56:04.004Z,9.43
2022-12-31T13:58:48.704Z,10.27
2022-12-31T14:01:34.438Z,10.27
2022-12-31T14:04:27.403Z,9.40
2022-12-31T14:07:12.629Z,10.50
2022-12-31T14:09:42.519Z,9.30
2022-12-31T14:12:27.770Z,9.33
2022-12-31T14:15:06.824Z,8.50
2022-12-31T14:17:57.847Z,8.10
2022-12-31T14:20:57.432Z,8.60
2022-12-31T14:23:54.691Z,8.77
2022-12-31T14:30:01.929Z,2.80
2022-12-31T14:32:37.953Z,3.33
2022-12-31T14:35:47.641Z,4.00
2022-12-31T14:38:51.532Z,4.10
2022-12-31T14:42:15.084Z,4.27
2022-12-31T14:45:30.093Z,4.30
2022-12-31T14:48:33.374Z,4.00
2022-12-31T14:51:03.268Z,4.20
2022-12-31T14:53:30.664Z,3.80
2022-12-31T14:56:04.614Z,3.80
2022-12-31T14:58:36.786Z,3.93
2022-12-31T15:01:29.108Z,4.20
2022-12-31T15:03:58.639Z,3.97
2022-12-31T15:06:41.225Z,4.07
2022-12-31T15:09:20.815Z,4.00
2022-12-31T15:12:47.146Z,3.93
2022-12-31T15:15:33.512Z,3.67
2022-12-31T15:18:46.681Z,3.73
2022-12-31T15:21:54.344Z,4.60
2022-12-31T15:24:27.594Z,4.37
2022-12-31T15:31:18.076Z,5.63
2022-12-31T15:36:25.942Z,4.37
2022-12-31T15:42:18.888Z,5.83
2022-12-31T15:47:31.825Z,5.23
2022-12-31T15:52:48.113Z,6.40
2022-12-31T15:57:51.221Z,5.40
2022-12-31T16:02:55.672Z,4.47
2022-12-31T16:08:00.157Z,4.00
2022-12-31T16:13:02.312Z,4.53
2022-12-31T16:18:18.948Z,3.40
2022-12-31T16:23:27.734Z,1.67
2022-12-31T16:28:32.837Z,1.37
2022-12-31T16:33:35.082Z,1.73
2022-12-31T16:38:38.323Z,1.43
2022-12-31T16:43:43.244Z,2.27
2022-12-31T16:48:48.838Z,2.53
2022-12-31T16:53:52.476Z,2.70
2022-12-31T16:59:06.070Z,2.57
2022-12-31T17:04:12.542Z,2.50
2022-12-31T17:09:33.718Z,3.10
2022-12-31T17:14:50.584Z,3.10
2022-12-31T17:20:00.330Z,3.73
2022-12-31T17:25:09.373Z,3.00
2022-12-31T17:30:32.902Z,3.20
2022-12-31T17:35:42.092Z,2.90
2022-12-31T17:40:51.348Z,6.10
2022-12-31T17:45:55.237Z,3.37
2022-12-31T17:51:00.742Z,3.20
2022-12-31T17:56:06.951Z,3.60
2022-12-31T18:01:10.402Z,3.83
2022-12-31T18:06:16.871Z,3.50
2022-12-31T18:11:23.484Z,3.53
2022-12-31T18:16:25.704Z,4.37
2022-12-31T18:21:34.506Z,4.33
2022-12-31T18:26:36.893Z,4.47
2022-12-31T18:31:39.706Z,4.83
2022-12-31T18:36:42.576Z,3.43
2022-12-31T18:41:49.577Z,4.40
2022-12-31T18:46:51.862Z,6.27
2022-12-31T18:51:57.270Z,7.20
2022-12-31T18:56:59.569Z,6.70
2022-12-31T19:02:01.834Z,6.30
2022-12-31T19:07:04.353Z,5.47
2022-12-31T19:12:07.155Z,5.10
2022-12-31T19:22:15.808Z,5.83
2022-12-31T19:27:18.087Z,5.20
2022-12-31T19:32:20.375Z,5.10
2022-12-31T19:37:22.466Z,5.73
2022-12-31T19:42:25.827Z,5.33
2022-12-31T19:47:28.420Z,6.43
2022-12-31T19:52:30.566Z,7.83
2022-12-31T19:57:32.875Z,8.53
2022-12-31T20:02:35.434Z,7.50
2022-12-31T20:07:37.978Z,7.77
2022-12-31T20:12:44.397Z,7.97
2022-12-31T20:17:46.947Z,7.70
2022-12-31T20:22:49.279Z,7.07
2022-12-31T20:27:55.913Z,7.43
2022-12-31T20:32:58.292Z,7.30
2022-12-31T20:38:00.480Z,8.73
2022-12-31T20:43:02.650Z,7.80
2022-12-31T20:48:05.217Z,6.87
2022-12-31T20:53:07.523Z,6.77
2022-12-31T20:58:09.637Z,10.60
2022-12-31T21:03:36.656Z,7.90
2022-12-31T21:08:35.149Z,7.63
2022-12-31T21:13:37.572Z,6.60
2022-12-31T21:18:39.860Z,6.50
2022-12-31T21:23:42.258Z,4.73
2022-12-31T21:28:44.636Z,2.70
2022-12-31T21:33:48.761Z,2.47
2022-12-31T21:38:51.122Z,1.93
2022-12-31T21:43:53.375Z,3.50
2022-12-31T21:49:00.677Z,2.70
2022-12-31T21:54:03.033Z,2.63
2022-12-31T21:59:24.184Z,2.60
2022-12-31T22:09:49.256Z,2.20
2022-12-31T22:15:15.612Z,2.30
2022-12-31T22:20:29.320Z,2.60
2022-12-31T22:25:35.362Z,2.07
2022-12-31T22:30:37.697Z,2.53
2022-12-31T22:35:40.052Z,2.50
2022-12-31T22:40:42.182Z,2.30
2022-12-31T22:45:44.426Z,2.17
2022-12-31T22:50:56.410Z,2.40
2022-12-31T22:55:58.749Z,2.03
2022-12-31T23:01:03.687Z,2.33
2022-12-31T23:06:05.946Z,12.43
2022-12-31T23:11:11.387Z,63.50
2022-12-31T23:16:32.192Z,18.40
2022-12-31T23:21:53.145Z,28.67
2022-12-31T23:26:59.076Z,28.40
2022-12-31T23:32:01.251Z,20.53
2022-12-31T23:37:04.359Z,15.37
2022-12-31T23:42:06.605Z,9.17
2022-12-31T23:47:08.907Z,9.10
2022-12-31T23:52:11.282Z,3.87
2022-12-31T23:57:13.438Z,3.57
